Time;durP1;ratioP1;P1;durP2;ratioP2;P2;SDS_P1;SDS_P2;PMS_P1;PMS_P2;Temp;Humidity;BMP_temperature;BMP_pressure;BME280_temperature;BME280_humidity;BME280_pressure;Samples;Min_cycle;Max_cycle;Signal;HPM_P1;HPM_P2
2021/12/06 00:02:22;;;;;;;;;;;2.50;93.10;;;;;;5113318;28;19916;-78
2021/12/06 00:04:49;;;;;;;;;;;2.50;92.50;;;;;;5113426;28;19919;-78
2021/12/06 00:07:18;;;;;;;;;;;2.50;92.40;;;;;;5113655;28;19930;-77
2021/12/06 00:09:44;;;;;;;;;;;2.50;93.10;;;;;;5113698;28;19916;-77
2021/12/06 00:12:10;;;;;;;;;;;2.50;92.70;;;;;;5113633;28;20315;-78
2021/12/06 00:14:37;;;;;;;;;;;2.50;92.90;;;;;;5113176;28;20363;-78
2021/12/06 00:17:05;;;;;;;;;;;2.50;92.90;;;;;;5113185;28;20053;-77
2021/12/06 00:19:31;;;;;;;;;;;2.60;93.10;;;;;;5112119;28;19963;-78
2021/12/06 00:21:57;;;;;;;;;;;2.50;92.60;;;;;;5112626;28;19949;-78
2021/12/06 00:24:23;;;;;;;;;;;2.50;92.10;;;;;;5112717;28;19923;-78
2021/12/06 00:26:49;;;;;;;;;;;2.50;92.80;;;;;;5113599;28;19964;-77
2021/12/06 00:29:15;;;;;;;;;;;2.50;92.90;;;;;;5096096;28;19916;-77
2021/12/06 00:31:41;;;;;;;;;;;2.50;93.40;;;;;;5113094;28;19915;-77
2021/12/06 00:34:11;;;;;;;;;;;2.50;93.30;;;;;;5111656;28;20367;-77
2021/12/06 00:36:39;;;;;;;;;;;2.50;93.30;;;;;;5112813;28;20275;-78
2021/12/06 00:39:07;;;;;;;;;;;2.50;93.70;;;;;;5112466;28;19958;-78
2021/12/06 00:41:32;;;;;;;;;;;2.50;94.00;;;;;;5112349;28;19916;-78
2021/12/06 00:43:59;;;;;;;;;;;2.50;93.60;;;;;;5112345;28;19926;-78
2021/12/06 00:46:25;;;;;;;;;;;2.50;94.00;;;;;;5112373;28;19966;-77
2021/12/06 00:48:50;;;;;;;;;;;2.60;94.10;;;;;;5095961;28;20336;-77
2021/12/06 00:51:16;;;;;;;;;;;2.60;93.50;;;;;;5113122;28;19922;-77
2021/12/06 00:53:42;;;;;;;;;;;2.60;93.40;;;;;;5112835;28;19916;-77
2021/12/06 00:56:08;;;;;;;;;;;2.60;94.20;;;;;;5112757;28;19955;-78
2021/12/06 00:58:33;;;;;;;;;;;2.60;93.80;;;;;;5112774;28;19965;-77
2021/12/06 01:00:59;;;;;;;;;;;2.60;93.30;;;;;;5112713;28;19921;-77
2021/12/06 01:03:26;;;;;;;;;;;2.50;92.50;;;;;;5112517;28;19919;-78
2021/12/06 01:05:52;;;;;;;;;;;2.60;93.70;;;;;;5113622;28;19923;-77
2021/12/06 01:08:18;;;;;;;;;;;2.60;93.30;;;;;;5099901;28;19916;-77
2021/12/06 01:10:45;;;;;;;;;;;2.50;93.30;;;;;;5099875;28;19963;-77
2021/12/06 01:13:10;;;;;;;;;;;2.60;93.90;;;;;;5099669;28;19923;-77
2021/12/06 01:15:37;;;;;;;;;;;2.60;93.90;;;;;;5116693;28;19915;-77
2021/12/06 01:18:04;;;;;;;;;;;2.60;94.70;;;;;;5116547;28;19923;-78
2021/12/06 01:20:39;;;;;;;;;;;2.60;94.60;;;;;;5116592;28;19919;-77
2021/12/06 01:23:09;;;;;;;;;;;2.60;94.50;;;;;;5116577;28;19969;-77
2021/12/06 01:25:49;;;;;;;;;;;2.60;94.90;;;;;;5099610;28;20083;-77
2021/12/06 01:31:12;;;;;;;;;;;2.60;94.80;;;;;;5116545;28;20010;-78
2021/12/06 01:34:03;;;;;;;;;;;2.60;94.70;;;;;;5116383;28;20323;-78
2021/12/06 01:39:12;;;;;;;;;;;2.60;94.20;;;;;;5116549;28;20271;-78
2021/12/06 01:41:39;;;;;;;;;;;2.60;94.20;;;;;;5116040;28;19920;-78
2021/12/06 01:44:15;;;;;;;;;;;2.60;94.40;;;;;;5115794;28;19919;-78
2021/12/06 01:46:46;;;;;;;;;;;2.60;94.60;;;;;;5116340;28;20283;-78
2021/12/06 01:49:13;;;;;;;;;;;2.60;94.70;;;;;;5099203;28;19916;-78
2021/12/06 01:51:39;;;;;;;;;;;2.60;94.90;;;;;;5099369;28;20026;-78
2021/12/06 01:54:05;;;;;;;;;;;2.60;95.10;;;;;;5099345;28;20014;-78
2021/12/06 01:56:31;;;;;;;;;;;2.60;95.00;;;;;;5099027;28;19916;-77
2021/12/06 01:58:56;;;;;;;;;;;2.60;94.70;;;;;;5115368;28;19939;-78
2021/12/06 02:01:22;;;;;;;;;;;2.60;93.70;;;;;;5115885;28;19962;-78
2021/12/06 02:03:48;;;;;;;;;;;2.60;94.30;;;;;;5115690;28;20313;-78
2021/12/06 02:06:14;;;;;;;;;;;2.60;94.30;;;;;;5115932;28;19916;-78
2021/12/06 02:08:39;;;;;;;;;;;2.60;94.10;;;;;;5115857;28;19923;-78
2021/12/06 02:11:06;;;;;;;;;;;2.60;94.60;;;;;;5115483;28;19969;-78
2021/12/06 02:13:54;;;;;;;;;;;2.70;95.10;;;;;;5115572;28;19969;-78
2021/12/06 02:16:29;;;;;;;;;;;2.70;95.30;;;;;;5115391;28;19922;-77
2021/12/06 02:19:01;;;;;;;;;;;2.70;94.90;;;;;;5115525;28;19915;-77
2021/12/06 02:21:31;;;;;;;;;;;2.70;94.50;;;;;;5099671;28;20328;-78
2021/12/06 02:23:58;;;;;;;;;;;2.70;94.90;;;;;;5115208;28;19926;-78
2021/12/06 02:26:25;;;;;;;;;;;2.70;94.60;;;;;;5115342;28;19919;-78
2021/12/06 02:28:50;;;;;;;;;;;2.70;94.60;;;;;;5115264;28;20420;-78
2021/12/06 02:31:17;;;;;;;;;;;2.70;94.60;;;;;;5115276;28;19917;-78
2021/12/06 02:33:45;;;;;;;;;;;2.70;94.80;;;;;;5114879;28;20041;-78
2021/12/06 02:36:11;;;;;;;;;;;2.70;94.70;;;;;;5115383;28;19923;-78
2021/12/06 02:38:37;;;;;;;;;;;2.80;94.90;;;;;;5114969;28;20379;-78
2021/12/06 02:41:02;;;;;;;;;;;2.70;94.90;;;;;;5114976;28;19916;-78
2021/12/06 02:43:29;;;;;;;;;;;2.70;94.80;;;;;;5114968;28;19920;-78
2021/12/06 02:45:55;;;;;;;;;;;2.70;95.10;;;;;;5115049;28;20007;-78
2021/12/06 02:48:20;;;;;;;;;;;2.70;95.00;;;;;;5114854;28;19962;-78
2021/12/06 02:50:50;;;;;;;;;;;2.70;95.00;;;;;;5097862;28;20352;-78
2021/12/06 02:53:17;;;;;;;;;;;2.60;94.50;;;;;;5097831;28;19961;-78
2021/12/06 02:55:43;;;;;;;;;;;2.60;94.40;;;;;;5114714;28;19916;-78
2021/12/06 02:58:42;;;;;;;;;;;2.60;94.30;;;;;;5114835;28;20282;-78
2021/12/06 03:01:10;;;;;;;;;;;2.60;94.10;;;;;;5114591;28;19916;-78
2021/12/06 03:03:37;;;;;;;;;;;2.60;94.10;;;;;;5114369;28;19926;-78
2021/12/06 03:06:03;;;;;;;;;;;2.60;94.20;;;;;;5097549;28;19916;-78
2021/12/06 03:08:36;;;;;;;;;;;2.60;94.10;;;;;;5114708;28;20002;-78
2021/12/06 03:11:04;;;;;;;;;;;2.60;94.20;;;;;;5114335;28;19915;-78
2021/12/06 03:13:29;;;;;;;;;;;2.60;94.20;;;;;;5097477;28;19915;-78
2021/12/06 03:15:55;;;;;;;;;;;2.60;94.20;;;;;;5114555;28;19915;-78
2021/12/06 03:18:20;;;;;;;;;;;2.60;94.10;;;;;;5113935;28;20359;-78
2021/12/06 03:20:46;;;;;;;;;;;2.60;93.90;;;;;;5114625;28;20014;-78
2021/12/06 03:23:12;;;;;;;;;;;2.60;94.10;;;;;;5097637;28;19968;-78
2021/12/06 03:25:37;;;;;;;;;;;2.60;94.10;;;;;;5113836;28;20264;-78
2021/12/06 03:28:03;;;;;;;;;;;2.60;94.00;;;;;;5113342;28;19923;-78
2021/12/06 03:30:29;;;;;;;;;;;2.60;93.90;;;;;;5096998;28;19962;-78
2021/12/06 03:32:54;;;;;;;;;;;2.60;93.90;;;;;;5114208;28;20027;-78
2021/12/06 03:35:20;;;;;;;;;;;2.60;93.80;;;;;;5114049;28;19915;-78
2021/12/06 03:37:46;;;;;;;;;;;2.60;93.90;;;;;;5114065;28;20306;-78
2021/12/06 03:40:12;;;;;;;;;;;2.60;93.90;;;;;;5114331;28;19919;-78
2021/12/06 03:42:37;;;;;;;;;;;2.60;94.00;;;;;;5113997;28;20381;-78
2021/12/06 03:45:08;;;;;;;;;;;2.60;94.00;;;;;;5096497;28;19920;-78
2021/12/06 03:47:34;;;;;;;;;;;2.60;94.20;;;;;;5113356;28;19985;-78
2021/12/06 03:50:00;;;;;;;;;;;2.60;94.20;;;;;;5113892;28;19916;-78
2021/12/06 03:52:26;;;;;;;;;;;2.60;94.20;;;;;;5113703;28;19920;-78
2021/12/06 03:54:52;;;;;;;;;;;2.60;94.00;;;;;;5113941;28;19915;-78
2021/12/06 03:57:19;;;;;;;;;;;2.60;94.10;;;;;;5113560;28;19923;-78
2021/12/06 03:59:44;;;;;;;;;;;2.50;94.00;;;;;;5113889;28;19915;-78
2021/12/06 04:02:11;;;;;;;;;;;2.50;94.10;;;;;;5096393;28;19922;-78
2021/12/06 04:04:37;;;;;;;;;;;2.50;94.30;;;;;;5113397;28;19926;-78
2021/12/06 04:07:03;;;;;;;;;;;2.50;94.30;;;;;;5113600;28;19919;-78
2021/12/06 04:09:29;;;;;;;;;;;2.50;94.40;;;;;;5113706;28;20339;-78
2021/12/06 04:11:55;;;;;;;;;;;2.50;94.60;;;;;;5113545;28;19915;-78
2021/12/06 04:14:20;;;;;;;;;;;2.50;94.70;;;;;;5096464;28;19915;-78
2021/12/06 04:16:46;;;;;;;;;;;2.50;94.70;;;;;;5113435;28;20006;-78
2021/12/06 04:19:12;;;;;;;;;;;2.50;94.80;;;;;;5113366;28;19922;-78
2021/12/06 04:21:39;;;;;;;;;;;2.60;94.80;;;;;;5113354;28;19922;-78
2021/12/06 04:24:09;;;;;;;;;;;2.40;94.80;;;;;;5113240;28;20335;-78
2021/12/06 04:26:35;;;;;;;;;;;2.50;94.90;;;;;;5113186;28;19919;-78
2021/12/06 04:29:01;;;;;;;;;;;2.60;95.00;;;;;;5096343;28;20278;-78
2021/12/06 04:31:28;;;;;;;;;;;2.60;94.90;;;;;;5113108;28;19916;-78
2021/12/06 04:33:54;;;;;;;;;;;2.60;95.00;;;;;;5096215;28;19923;-78
2021/12/06 04:36:19;;;;;;;;;;;2.60;95.00;;;;;;5096338;28;19916;-78
2021/12/06 04:38:45;;;;;;;;;;;2.60;95.00;;;;;;5112970;28;19919;-78
2021/12/06 04:41:10;;;;;;;;;;;2.60;95.00;;;;;;5100077;28;19919;-78
2021/12/06 04:43:36;;;;;;;;;;;2.60;95.00;;;;;;5117189;28;20379;-78
2021/12/06 04:46:02;;;;;;;;;;;2.60;95.10;;;;;;5117590;28;19977;-78
2021/12/06 04:48:27;;;;;;;;;;;2.60;95.10;;;;;;5117594;28;19915;-78
2021/12/06 04:50:53;;;;;;;;;;;2.60;94.90;;;;;;5117124;28;19915;-78
2021/12/06 04:53:20;;;;;;;;;;;2.60;94.90;;;;;;5117297;28;20009;-78
2021/12/06 04:55:49;;;;;;;;;;;2.60;94.90;;;;;;5117466;28;20393;-78
2021/12/06 04:58:24;;;;;;;;;;;2.60;95.00;;;;;;5116900;28;20377;-78
2021/12/06 05:00:55;;;;;;;;;;;2.60;95.00;;;;;;5116410;28;20053;-78
2021/12/06 05:03:21;;;;;;;;;;;2.60;95.10;;;;;;5116748;28;19930;-78
2021/12/06 05:05:52;;;;;;;;;;;2.50;95.00;;;;;;5116989;28;20422;-78
2021/12/06 05:08:20;;;;;;;;;;;2.60;95.20;;;;;;5116819;28;19984;-77
2021/12/06 05:10:47;;;;;;;;;;;2.60;95.20;;;;;;5116646;28;20379;-78
2021/12/06 05:13:12;;;;;;;;;;;2.60;95.20;;;;;;5117024;28;19916;-78
2021/12/06 05:15:38;;;;;;;;;;;2.60;95.30;;;;;;5116966;28;20018;-78
2021/12/06 05:18:04;;;;;;;;;;;2.60;95.30;;;;;;5116650;28;19915;-78
2021/12/06 05:20:30;;;;;;;;;;;2.60;95.40;;;;;;5116816;28;19916;-78
2021/12/06 05:22:56;;;;;;;;;;;2.60;95.50;;;;;;5099509;28;19916;-78
2021/12/06 05:25:23;;;;;;;;;;;2.60;95.40;;;;;;5116581;28;19920;-78
2021/12/06 05:27:50;;;;;;;;;;;2.60;95.40;;;;;;5099704;28;19960;-78
2021/12/06 05:30:16;;;;;;;;;;;2.70;95.40;;;;;;5116372;28;19915;-78
2021/12/06 05:32:42;;;;;;;;;;;2.70;95.50;;;;;;5099806;28;19923;-78
2021/12/06 05:35:09;;;;;;;;;;;2.70;95.40;;;;;;5116457;28;19916;-78
2021/12/06 05:37:36;;;;;;;;;;;2.70;95.40;;;;;;5116516;28;19915;-78
2021/12/06 05:40:06;;;;;;;;;;;2.70;95.40;;;;;;5116089;28;19916;-78
2021/12/06 05:42:31;;;;;;;;;;;2.60;95.10;;;;;;5116168;28;19922;-78
2021/12/06 05:44:57;;;;;;;;;;;2.70;95.40;;;;;;5116169;28;19924;-78
2021/12/06 05:47:22;;;;;;;;;;;2.60;95.30;;;;;;5098983;28;19969;-78
2021/12/06 05:49:48;;;;;;;;;;;2.70;95.40;;;;;;5115957;28;19916;-78
2021/12/06 05:52:14;;;;;;;;;;;2.70;95.40;;;;;;5115138;28;19920;-78
2021/12/06 05:54:40;;;;;;;;;;;2.70;95.40;;;;;;5116097;28;19923;-78
2021/12/06 05:57:07;;;;;;;;;;;2.60;95.30;;;;;;5099305;28;19916;-78
2021/12/06 05:59:32;;;;;;;;;;;2.60;95.40;;;;;;5098617;28;19916;-78
2021/12/06 06:01:58;;;;;;;;;;;2.60;95.40;;;;;;5115496;28;19969;-78
2021/12/06 06:04:26;;;;;;;;;;;2.60;95.40;;;;;;5115185;28;19984;-78
2021/12/06 06:06:51;;;;;;;;;;;2.60;95.50;;;;;;5098514;28;19916;-78
2021/12/06 06:09:17;;;;;;;;;;;2.60;95.50;;;;;;5115896;28;19920;-78
2021/12/06 06:11:43;;;;;;;;;;;2.60;95.40;;;;;;5116144;28;19950;-78
2021/12/06 06:14:08;;;;;;;;;;;2.60;95.50;;;;;;5115636;28;19951;-78
2021/12/06 06:16:46;;;;;;;;;;;2.60;95.60;;;;;;5115045;28;19916;-78
2021/12/06 06:19:11;;;;;;;;;;;2.60;95.50;;;;;;5098700;28;20304;-78
2021/12/06 06:21:37;;;;;;;;;;;2.60;95.50;;;;;;5098496;28;20061;-78
2021/12/06 06:24:03;;;;;;;;;;;2.60;95.40;;;;;;5115289;28;19928;-78
2021/12/06 06:26:29;;;;;;;;;;;2.60;95.50;;;;;;5098347;28;20359;-78
2021/12/06 06:28:54;;;;;;;;;;;2.60;95.60;;;;;;5115296;28;19922;-78
2021/12/06 06:31:20;;;;;;;;;;;2.60;95.60;;;;;;5115533;28;19915;-78
2021/12/06 06:33:45;;;;;;;;;;;2.60;95.70;;;;;;5115376;28;20428;-78
2021/12/06 06:36:11;;;;;;;;;;;2.60;95.70;;;;;;5115016;28;19920;-78
2021/12/06 06:38:37;;;;;;;;;;;2.60;95.70;;;;;;5097786;28;19928;-78
2021/12/06 06:41:03;;;;;;;;;;;2.60;95.70;;;;;;5115314;28;19941;-78
2021/12/06 06:43:29;;;;;;;;;;;2.60;95.60;;;;;;5114938;28;19927;-78
2021/12/06 06:45:55;;;;;;;;;;;2.60;95.60;;;;;;5097998;28;19916;-78
2021/12/06 06:48:20;;;;;;;;;;;2.60;95.60;;;;;;5114771;28;19923;-78
2021/12/06 06:50:46;;;;;;;;;;;2.60;95.70;;;;;;5115115;28;19922;-78
2021/12/06 06:53:11;;;;;;;;;;;2.50;95.60;;;;;;5114948;28;19916;-78
2021/12/06 06:55:37;;;;;;;;;;;2.60;95.70;;;;;;5114620;28;19973;-78
2021/12/06 06:58:03;;;;;;;;;;;2.50;95.70;;;;;;5097613;28;19915;-77
2021/12/06 07:00:34;;;;;;;;;;;2.50;95.70;;;;;;5097262;28;19915;-78
2021/12/06 07:03:00;;;;;;;;;;;2.50;95.80;;;;;;5113227;28;19916;-78
2021/12/06 07:05:26;;;;;;;;;;;2.50;95.80;;;;;;5114693;28;19980;-78
2021/12/06 07:07:52;;;;;;;;;;;2.50;95.80;;;;;;5112978;28;19915;-79
2021/12/06 07:10:18;;;;;;;;;;;2.50;95.90;;;;;;5112928;28;20252;-79
2021/12/06 07:12:49;;;;;;;;;;;2.50;96.00;;;;;;5112142;28;19915;-78
2021/12/06 07:15:16;;;;;;;;;;;2.50;96.10;;;;;;5113290;28;19970;-78
2021/12/06 07:17:42;;;;;;;;;;;2.50;96.00;;;;;;5096479;28;19916;-78
2021/12/06 07:20:09;;;;;;;;;;;2.50;96.20;;;;;;5079676;28;19916;-78
2021/12/06 07:22:34;;;;;;;;;;;2.50;96.20;;;;;;5096694;28;19957;-78
2021/12/06 07:25:00;;;;;;;;;;;2.50;96.10;;;;;;5096054;28;19923;-78
2021/12/06 07:27:25;;;;;;;;;;;2.60;96.10;;;;;;5113819;28;19969;-78
2021/12/06 07:29:51;;;;;;;;;;;2.50;96.20;;;;;;5113319;28;19916;-78
2021/12/06 07:32:16;;;;;;;;;;;2.50;96.20;;;;;;5113726;28;19969;-78
2021/12/06 07:34:42;;;;;;;;;;;2.50;96.20;;;;;;5096868;28;19916;-78
2021/12/06 07:37:08;;;;;;;;;;;2.50;96.10;;;;;;5113820;28;19915;-79
2021/12/06 07:39:33;;;;;;;;;;;2.50;96.20;;;;;;5113153;28;19963;-79
2021/12/06 07:41:59;;;;;;;;;;;2.50;96.20;;;;;;5113632;28;19961;-78
2021/12/06 07:44:25;;;;;;;;;;;2.50;96.30;;;;;;5113584;28;20261;-79
2021/12/06 07:46:52;;;;;;;;;;;2.50;96.40;;;;;;5113346;28;20013;-77
2021/12/06 07:49:18;;;;;;;;;;;2.60;96.30;;;;;;5112809;28;20316;-78
2021/12/06 07:51:44;;;;;;;;;;;2.50;96.40;;;;;;5113704;28;19916;-77
2021/12/06 07:54:10;;;;;;;;;;;2.50;96.50;;;;;;5113222;28;20272;-78
2021/12/06 07:56:36;;;;;;;;;;;2.40;96.70;;;;;;5095802;28;19959;-77
2021/12/06 07:59:01;;;;;;;;;;;2.50;96.70;;;;;;5113156;28;19915;-77
2021/12/06 08:01:27;;;;;;;;;;;2.40;96.70;;;;;;5113556;28;20313;-79
2021/12/06 08:03:54;;;;;;;;;;;2.50;96.60;;;;;;5113097;28;20016;-78
2021/12/06 08:06:19;;;;;;;;;;;2.50;96.50;;;;;;5096722;28;19916;-78
2021/12/06 08:08:46;;;;;;;;;;;2.50;96.60;;;;;;5113426;28;20424;-79
2021/12/06 08:11:14;;;;;;;;;;;2.50;96.70;;;;;;5113295;28;19916;-77
2021/12/06 08:13:41;;;;;;;;;;;2.50;96.70;;;;;;5096059;28;19998;-77
2021/12/06 08:16:08;;;;;;;;;;;2.60;96.60;;;;;;5112934;28;19915;-76
2021/12/06 08:18:34;;;;;;;;;;;2.60;96.50;;;;;;5113579;28;19915;-77
2021/12/06 08:21:00;;;;;;;;;;;2.60;96.50;;;;;;5113900;28;20358;-77
2021/12/06 08:23:27;;;;;;;;;;;2.60;96.60;;;;;;5124190;27;20286;-79
2021/12/06 08:25:54;;;;;;;;;;;2.60;96.70;;;;;;5124966;27;19972;-77
2021/12/06 08:28:22;;;;;;;;;;;2.60;96.70;;;;;;5099766;28;20347;-78
2021/12/06 08:30:49;;;;;;;;;;;2.60;96.80;;;;;;5102325;28;20301;-79
2021/12/06 08:33:15;;;;;;;;;;;2.60;97.00;;;;;;5119498;28;20382;-79
2021/12/06 08:35:42;;;;;;;;;;;2.60;96.90;;;;;;5120543;28;19930;-80
2021/12/06 08:38:08;;;;;;;;;;;2.60;96.90;;;;;;5125428;28;20361;-79
2021/12/06 08:40:34;;;;;;;;;;;2.60;96.90;;;;;;5120598;28;20001;-78
2021/12/06 08:43:00;;;;;;;;;;;2.60;96.80;;;;;;5120288;28;19924;-79
2021/12/06 08:45:27;;;;;;;;;;;2.60;97.00;;;;;;5120055;28;19938;-78
2021/12/06 08:47:52;;;;;;;;;;;2.60;96.90;;;;;;5105455;28;19915;-79
2021/12/06 08:50:19;;;;;;;;;;;2.60;97.00;;;;;;5106620;28;20355;-79
2021/12/06 08:52:46;;;;;;;;;;;2.60;97.10;;;;;;5104494;28;20367;-77
2021/12/06 08:55:12;;;;;;;;;;;2.60;97.00;;;;;;5117762;28;19916;-79
2021/12/06 08:57:38;;;;;;;;;;;2.70;97.00;;;;;;5119263;28;19924;-80
2021/12/06 09:00:13;;;;;;;;;;;2.60;97.00;;;;;;5116930;28;20052;-80
2021/12/06 09:02:39;;;;;;;;;;;2.70;97.20;;;;;;5099583;28;19922;-78
2021/12/06 09:05:05;;;;;;;;;;;2.70;97.40;;;;;;5102818;28;19927;-80
2021/12/06 09:07:32;;;;;;;;;;;2.70;97.50;;;;;;5122434;28;19924;-77
2021/12/06 09:09:57;;;;;;;;;;;2.70;97.50;;;;;;5101296;28;20263;-77
2021/12/06 09:12:24;;;;;;;;;;;2.70;97.50;;;;;;5118587;28;19915;-79
2021/12/06 09:14:51;;;;;;;;;;;2.70;97.50;;;;;;5098075;28;19922;-79
2021/12/06 09:17:17;;;;;;;;;;;2.70;97.60;;;;;;5118020;28;19938;-78
2021/12/06 09:19:42;;;;;;;;;;;2.70;97.70;;;;;;5122350;28;20420;-79
2021/12/06 09:22:08;;;;;;;;;;;2.70;97.80;;;;;;5119443;28;19923;-79
2021/12/06 09:24:34;;;;;;;;;;;2.70;97.80;;;;;;5104867;28;19945;-80
2021/12/06 09:27:01;;;;;;;;;;;2.80;97.80;;;;;;5123720;27;19916;-78
2021/12/06 09:29:27;;;;;;;;;;;2.80;97.80;;;;;;5128393;27;19971;-81
2021/12/06 09:31:53;;;;;;;;;;;2.80;97.80;;;;;;5103951;27;19965;-79
2021/12/06 09:34:19;;;;;;;;;;;2.80;97.80;;;;;;5105727;27;19927;-78
2021/12/06 09:36:46;;;;;;;;;;;2.90;98.00;;;;;;5121968;27;19923;-79
2021/12/06 09:39:13;;;;;;;;;;;2.90;98.00;;;;;;5122094;27;19930;-78
2021/12/06 09:41:39;;;;;;;;;;;2.90;98.00;;;;;;5123432;27;19935;-78
2021/12/06 09:44:05;;;;;;;;;;;2.90;97.90;;;;;;5119173;27;19923;-79
2021/12/06 09:46:36;;;;;;;;;;;3.00;97.90;;;;;;5105540;27;19973;-78
2021/12/06 09:49:07;;;;;;;;;;;3.00;97.90;;;;;;5092568;27;20039;-80
2021/12/06 09:51:33;;;;;;;;;;;3.00;97.90;;;;;;5122865;27;19920;-78
2021/12/06 09:53:59;;;;;;;;;;;3.00;97.90;;;;;;5122537;27;19964;-80
2021/12/06 09:56:27;;;;;;;;;;;3.10;97.90;;;;;;5108101;27;19915;-78
2021/12/06 09:58:53;;;;;;;;;;;3.10;97.80;;;;;;5103283;27;19916;-78
2021/12/06 10:01:21;;;;;;;;;;;3.10;97.70;;;;;;5119345;27;20362;-79
2021/12/06 10:03:49;;;;;;;;;;;3.10;97.60;;;;;;5098089;27;19924;-78
2021/12/06 10:06:16;;;;;;;;;;;3.10;97.40;;;;;;5121637;27;20274;-78
2021/12/06 10:08:44;;;;;;;;;;;3.10;97.20;;;;;;5118452;27;20489;-78
2021/12/06 10:11:10;;;;;;;;;;;3.10;97.00;;;;;;5116075;27;20343;-77
2021/12/06 10:13:36;;;;;;;;;;;3.10;97.00;;;;;;5119909;27;19924;-79
2021/12/06 10:16:02;;;;;;;;;;;3.10;96.90;;;;;;5120151;27;19924;-81
2021/12/06 10:18:28;;;;;;;;;;;3.10;96.70;;;;;;5118837;27;19923;-79
2021/12/06 10:20:54;;;;;;;;;;;3.10;96.70;;;;;;5116949;27;19923;-80
2021/12/06 10:23:20;;;;;;;;;;;3.10;96.70;;;;;;5118403;27;19915;-79
2021/12/06 10:25:47;;;;;;;;;;;3.10;96.40;;;;;;5120245;27;19927;-81
2021/12/06 10:28:13;;;;;;;;;;;3.10;96.40;;;;;;5119436;27;19920;-81
2021/12/06 10:30:41;;;;;;;;;;;3.10;96.30;;;;;;5114902;27;20084;-82
2021/12/06 10:33:09;;;;;;;;;;;3.10;96.30;;;;;;5119492;27;19931;-81
2021/12/06 10:35:38;;;;;;;;;;;3.10;96.50;;;;;;5118016;27;19930;-80
2021/12/06 10:38:03;;;;;;;;;;;3.10;95.90;;;;;;5120053;27;20390;-80
2021/12/06 10:40:31;;;;;;;;;;;3.10;96.20;;;;;;5116435;27;19923;-82
2021/12/06 10:42:57;;;;;;;;;;;3.10;96.20;;;;;;5115065;27;20002;-80
2021/12/06 10:45:24;;;;;;;;;;;3.10;96.10;;;;;;5118951;27;19919;-81
2021/12/06 10:48:09;;;;;;;;;;;3.10;96.20;;;;;;5119084;27;19922;-80
2021/12/06 10:50:36;;;;;;;;;;;3.10;96.00;;;;;;5102051;27;20364;-80
2021/12/06 10:53:03;;;;;;;;;;;3.10;96.00;;;;;;5098904;27;20271;-80
2021/12/06 10:55:30;;;;;;;;;;;3.10;96.20;;;;;;5101347;27;19916;-81
2021/12/06 10:57:58;;;;;;;;;;;3.10;96.00;;;;;;5118193;27;19938;-80
2021/12/06 11:00:39;;;;;;;;;;;3.00;95.60;;;;;;5097051;27;19916;-82
2021/12/06 11:03:16;;;;;;;;;;;3.00;95.90;;;;;;5114587;27;20010;-80
2021/12/06 11:05:44;;;;;;;;;;;3.00;95.70;;;;;;5119143;27;19975;-81
2021/12/06 11:08:14;;;;;;;;;;;2.90;95.70;;;;;;5119801;27;19927;-81
2021/12/06 11:10:45;;;;;;;;;;;2.80;95.60;;;;;;5121678;27;19931;-81
2021/12/06 11:13:25;;;;;;;;;;;2.80;95.80;;;;;;5098579;27;20002;-82
2021/12/06 11:15:53;;;;;;;;;;;2.70;95.90;;;;;;5117342;27;19923;-82
2021/12/06 11:18:28;;;;;;;;;;;2.70;96.00;;;;;;5096365;27;19938;-82
2021/12/06 11:20:54;;;;;;;;;;;2.70;96.00;;;;;;5117331;27;20337;-81
2021/12/06 11:23:19;;;;;;;;;;;2.70;96.00;;;;;;5100480;27;20010;-81
2021/12/06 11:25:53;;;;;;;;;;;2.60;96.10;;;;;;5119672;27;20371;-79
2021/12/06 11:28:38;;;;;;;;;;;2.60;96.30;;;;;;5119676;27;19916;-80
2021/12/06 11:31:05;;;;;;;;;;;2.60;96.30;;;;;;5101963;27;20496;-82
2021/12/06 11:33:32;;;;;;;;;;;2.60;96.60;;;;;;5117833;27;20455;-81
2021/12/06 11:35:59;;;;;;;;;;;2.60;96.50;;;;;;5131007;27;19993;-82
2021/12/06 11:38:26;;;;;;;;;;;2.60;96.60;;;;;;5116521;27;19915;-81
2021/12/06 11:40:55;;;;;;;;;;;2.60;96.90;;;;;;5119439;27;19927;-82
2021/12/06 11:43:20;;;;;;;;;;;2.60;97.10;;;;;;5113176;28;19916;-80
2021/12/06 11:46:07;;;;;;;;;;;2.60;97.00;;;;;;5079408;28;20315;-80
2021/12/06 11:48:38;;;;;;;;;;;2.60;97.00;;;;;;5096051;28;19938;-80
2021/12/06 11:51:09;;;;;;;;;;;2.70;97.00;;;;;;5095747;28;19915;-80
2021/12/06 11:53:39;;;;;;;;;;;2.70;97.00;;;;;;5095965;28;19916;-79
2021/12/06 11:56:07;;;;;;;;;;;2.70;97.00;;;;;;5112833;28;19923;-80
2021/12/06 11:58:38;;;;;;;;;;;2.70;97.00;;;;;;5113408;28;20271;-80
2021/12/06 12:01:11;;;;;;;;;;;2.70;97.00;;;;;;5113006;28;19922;-80
2021/12/06 12:03:37;;;;;;;;;;;2.70;97.10;;;;;;5113237;28;19926;-80
2021/12/06 12:06:19;;;;;;;;;;;2.70;97.20;;;;;;5112899;28;19923;-79
2021/12/06 12:08:45;;;;;;;;;;;2.70;97.30;;;;;;5096124;28;19920;-79
2021/12/06 12:11:10;;;;;;;;;;;2.70;97.30;;;;;;5095900;28;19916;-80
2021/12/06 12:13:36;;;;;;;;;;;2.70;97.30;;;;;;5112828;28;19923;-80
2021/12/06 12:16:06;;;;;;;;;;;2.70;97.30;;;;;;5112830;28;19920;-80
2021/12/06 12:18:34;;;;;;;;;;;2.70;97.10;;;;;;5112756;28;19971;-79
2021/12/06 12:20:59;;;;;;;;;;;2.80;97.10;;;;;;5112696;28;20455;-79
2021/12/06 12:23:30;;;;;;;;;;;2.80;97.30;;;;;;5095926;28;19976;-80
2021/12/06 12:26:01;;;;;;;;;;;2.80;97.40;;;;;;5095709;28;19927;-79
2021/12/06 12:28:39;;;;;;;;;;;2.80;97.30;;;;;;5095624;28;19970;-79
2021/12/06 12:31:09;;;;;;;;;;;2.80;97.30;;;;;;5112998;28;19915;-80
2021/12/06 12:33:35;;;;;;;;;;;2.80;97.30;;;;;;5095744;28;20279;-79
2021/12/06 12:36:06;;;;;;;;;;;2.80;97.40;;;;;;5096003;28;20009;-79
2021/12/06 12:38:36;;;;;;;;;;;2.90;97.40;;;;;;5095593;28;19916;-81
2021/12/06 12:41:04;;;;;;;;;;;2.90;97.30;;;;;;5112363;28;19938;-80
2021/12/06 12:43:38;;;;;;;;;;;2.90;97.30;;;;;;5112419;28;19955;-79
2021/12/06 12:46:05;;;;;;;;;;;3.00;97.30;;;;;;5112525;28;19915;-80
2021/12/06 12:48:43;;;;;;;;;;;3.00;97.30;;;;;;5095761;28;20060;-81
2021/12/06 12:51:11;;;;;;;;;;;3.10;97.40;;;;;;5095471;28;19922;-79
2021/12/06 12:53:52;;;;;;;;;;;3.10;97.30;;;;;;5112449;28;19926;-81
2021/12/06 12:56:20;;;;;;;;;;;3.10;97.30;;;;;;5112262;28;19923;-79
2021/12/06 12:58:46;;;;;;;;;;;3.10;97.30;;;;;;5112035;28;20359;-80
2021/12/06 13:01:13;;;;;;;;;;;3.10;97.20;;;;;;5099023;28;20045;-80
2021/12/06 13:03:45;;;;;;;;;;;3.10;97.10;;;;;;5118659;28;19980;-79
2021/12/06 13:06:14;;;;;;;;;;;3.10;97.00;;;;;;5116624;28;19915;-81
2021/12/06 13:08:40;;;;;;;;;;;3.10;97.00;;;;;;5116507;28;19939;-80
2021/12/06 13:11:06;;;;;;;;;;;3.20;97.00;;;;;;5116416;28;20351;-80
2021/12/06 13:13:35;;;;;;;;;;;3.20;97.00;;;;;;5116135;28;19923;-79
2021/12/06 13:16:22;;;;;;;;;;;3.20;96.80;;;;;;5098954;28;19916;-79
2021/12/06 13:19:06;;;;;;;;;;;3.20;96.80;;;;;;5099093;28;19916;-79
2021/12/06 13:21:38;;;;;;;;;;;3.20;96.60;;;;;;5116343;28;19916;-80
2021/12/06 13:24:09;;;;;;;;;;;3.30;96.60;;;;;;5116005;28;19985;-80
2021/12/06 13:26:35;;;;;;;;;;;3.30;96.30;;;;;;5098968;28;19916;-79
2021/12/06 13:29:09;;;;;;;;;;;3.30;96.40;;;;;;5115956;28;19964;-80
2021/12/06 13:31:35;;;;;;;;;;;3.30;96.40;;;;;;5116257;28;20028;-78
2021/12/06 13:34:15;;;;;;;;;;;3.40;96.40;;;;;;5098564;28;20359;-79
2021/12/06 13:36:42;;;;;;;;;;;3.30;96.10;;;;;;5116017;28;19923;-80
2021/12/06 13:39:34;;;;;;;;;;;3.30;96.20;;;;;;5115721;28;19962;-80
2021/12/06 13:42:01;;;;;;;;;;;3.40;96.20;;;;;;5111534;28;20270;-79
2021/12/06 13:44:39;;;;;;;;;;;3.30;96.20;;;;;;5115557;28;19923;-80
2021/12/06 13:47:31;;;;;;;;;;;3.30;96.20;;;;;;5115914;28;19920;-81
2021/12/06 13:49:56;;;;;;;;;;;3.30;96.10;;;;;;5093979;28;20363;-80
2021/12/06 13:52:33;;;;;;;;;;;3.30;96.20;;;;;;5115783;28;19927;-80
2021/12/06 13:54:59;;;;;;;;;;;3.30;96.20;;;;;;5098230;28;19916;-78
2021/12/06 13:57:25;;;;;;;;;;;3.30;96.20;;;;;;5115580;28;20266;-80
2021/12/06 13:59:56;;;;;;;;;;;3.30;96.10;;;;;;5098583;28;19915;-78
2021/12/06 14:02:27;;;;;;;;;;;3.20;96.10;;;;;;5098660;28;20364;-79
2021/12/06 14:04:53;;;;;;;;;;;3.20;96.10;;;;;;5115309;28;19919;-79
2021/12/06 14:07:24;;;;;;;;;;;3.20;96.10;;;;;;5115205;28;19916;-80
2021/12/06 14:09:52;;;;;;;;;;;3.20;96.10;;;;;;5098151;28;20028;-80
2021/12/06 14:12:18;;;;;;;;;;;3.20;96.00;;;;;;5114315;28;20006;-78
2021/12/06 14:14:48;;;;;;;;;;;3.20;96.00;;;;;;5114940;28;19916;-80
2021/12/06 14:17:14;;;;;;;;;;;3.10;96.00;;;;;;5097959;28;19916;-79
2021/12/06 14:19:40;;;;;;;;;;;3.10;96.00;;;;;;5114566;28;19915;-80
2021/12/06 14:22:06;;;;;;;;;;;3.10;95.90;;;;;;5114874;28;20045;-80
2021/12/06 14:24:33;;;;;;;;;;;3.10;96.00;;;;;;5097550;28;19927;-80
2021/12/06 14:26:59;;;;;;;;;;;3.20;95.80;;;;;;5115156;28;19938;-80
2021/12/06 14:29:26;;;;;;;;;;;3.10;96.00;;;;;;5114583;28;19916;-79
2021/12/06 14:31:53;;;;;;;;;;;3.20;95.90;;;;;;5114536;28;20331;-79
2021/12/06 14:34:20;;;;;;;;;;;3.20;95.90;;;;;;5098032;28;19919;-80
2021/12/06 14:36:45;;;;;;;;;;;3.20;95.80;;;;;;5114700;28;19938;-80
2021/12/06 14:39:11;;;;;;;;;;;3.10;95.90;;;;;;5097396;28;20343;-80
2021/12/06 14:41:48;;;;;;;;;;;3.10;95.90;;;;;;5097429;28;19920;-79